Time;durP1;ratioP1;P1;durP2;ratioP2;P2;SDS_P1;SDS_P2;PMS_P1;PMS_P2;Temp;Humidity;BMP_temperature;BMP_pressure;BME280_temperature;BME280_humidity;BME280_pressure;Samples;Min_cycle;Max_cycle;Signal;HPM_P1;HPM_P2
2021/08/28 00:01:31;;;;;;;2.13;1.63;;;17.50;78.00;;;;;;6219392;28;20575;-76
2021/08/28 00:04:34;;;;;;;3.78;1.98;;;17.50;77.40;;;;;;6213028;28;20444;-77
2021/08/28 00:07:36;;;;;;;5.30;2.25;;;17.40;77.80;;;;;;6219657;28;20416;-77
2021/08/28 00:10:38;;;;;;;3.93;2.13;;;17.40;78.40;;;;;;6219825;28;20563;-76
2021/08/28 00:13:40;;;;;;;4.20;2.13;;;17.70;78.40;;;;;;6220184;28;20496;-77
2021/08/28 00:16:43;;;;;;;5.97;2.00;;;17.30;77.70;;;;;;6218759;28;20427;-76
2021/08/28 00:19:45;;;;;;;4.63;1.85;;;17.20;78.40;;;;;;6219288;28;20549;-76
2021/08/28 00:22:47;;;;;;;3.53;2.17;;;17.40;79.20;;;;;;6220383;28;20528;-77
2021/08/28 00:25:49;;;;;;;4.63;2.75;;;17.20;78.80;;;;;;6223743;28;20443;-77
2021/08/28 00:28:50;;;;;;;3.47;2.03;;;17.10;79.00;;;;;;6223084;28;20492;-77
2021/08/28 00:31:54;;;;;;;4.82;2.28;;;17.00;78.60;;;;;;6223444;28;20501;-77
2021/08/28 00:34:56;;;;;;;6.70;2.25;;;17.10;79.10;;;;;;6222795;28;20934;-77
2021/08/28 00:37:57;;;;;;;6.78;1.83;;;17.00;78.80;;;;;;6229203;28;20515;-76
2021/08/28 00:40:59;;;;;;;3.83;2.10;;;17.10;78.60;;;;;;6218530;28;20448;-76
2021/08/28 00:44:02;;;;;;;5.03;2.15;;;17.10;78.80;;;;;;6225177;28;20425;-77
2021/08/28 00:47:05;;;;;;;3.17;2.35;;;17.90;78.70;;;;;;6222775;28;20519;-77
2021/08/28 00:50:08;;;;;;;4.00;1.55;;;17.10;77.90;;;;;;6223231;28;20458;-76
2021/08/28 00:53:11;;;;;;;3.75;1.98;;;17.10;77.70;;;;;;6222538;28;20456;-76
2021/08/28 00:56:13;;;;;;;4.20;1.80;;;17.10;77.70;;;;;;6222082;28;20508;-76
2021/08/28 00:59:15;;;;;;;7.95;1.88;;;17.60;77.50;;;;;;6222963;28;20447;-77
2021/08/28 01:02:21;;;;;;;5.35;1.95;;;17.10;77.50;;;;;;6222923;28;20447;-77
2021/08/28 01:05:29;;;;;;;6.40;2.20;;;17.10;77.70;;;;;;6222644;28;20484;-77
2021/08/28 01:08:38;;;;;;;2.33;1.70;;;17.50;77.50;;;;;;6222517;28;20458;-77
2021/08/28 01:11:48;;;;;;;3.20;1.40;;;17.20;78.10;;;;;;6222587;28;21053;-77
2021/08/28 01:14:56;;;;;;;4.60;1.73;;;17.10;77.30;;;;;;6221922;28;21038;-77
2021/08/28 01:17:59;;;;;;;2.00;1.70;;;17.10;77.30;;;;;;6222736;28;20488;-77
2021/08/28 01:21:05;;;;;;;5.67;1.90;;;17.40;77.40;;;;;;6222326;28;20458;-77
2021/08/28 01:24:09;;;;;;;2.70;1.40;;;17.10;76.80;;;;;;6221895;28;20595;-77
2021/08/28 01:27:17;;;;;;;3.80;1.88;;;17.10;76.20;;;;;;6221786;28;20884;-76
2021/08/28 01:30:21;;;;;;;5.63;1.85;;;17.20;76.50;;;;;;6211261;28;20577;-76
2021/08/28 01:33:24;;;;;;;3.55;2.03;;;17.10;76.40;;;;;;6197238;28;20572;-76
2021/08/28 01:36:27;;;;;;;9.10;2.20;;;17.10;76.60;;;;;;6197430;28;20547;-76
2021/08/28 01:39:30;;;;;;;4.28;2.00;;;17.10;76.50;;;;;;6197205;28;20487;-76
2021/08/28 01:42:33;;;;;;;4.03;1.92;;;17.20;76.50;;;;;;6204863;28;20569;-76
2021/08/28 01:45:37;;;;;;;3.22;1.80;;;17.20;77.00;;;;;;6197438;28;20479;-76
2021/08/28 01:48:39;;;;;;;6.00;1.88;;;17.50;77.20;;;;;;6198571;28;20676;-76
2021/08/28 01:51:42;;;;;;;3.35;1.80;;;17.20;77.20;;;;;;6198562;28;20472;-76
2021/08/28 01:54:44;;;;;;;5.50;2.33;;;17.10;77.10;;;;;;6197097;28;20477;-75
2021/08/28 01:57:47;;;;;;;5.30;3.00;;;17.30;77.60;;;;;;6197885;28;20477;-76
2021/08/28 02:00:50;;;;;;;10.50;3.33;;;17.10;77.20;;;;;;6197161;28;20501;-76
2021/08/28 02:03:52;;;;;;;6.95;2.10;;;17.20;77.10;;;;;;6196978;28;20543;-76
2021/08/28 02:07:00;;;;;;;6.82;2.80;;;17.10;77.30;;;;;;6196711;28;20998;-76
2021/08/28 02:10:07;;;;;;;3.30;2.28;;;17.10;77.10;;;;;;6197527;28;20500;-76
2021/08/28 02:13:15;;;;;;;3.90;2.10;;;17.10;76.60;;;;;;6196654;28;20717;-76
2021/08/28 02:16:23;;;;;;;5.65;2.03;;;17.50;77.00;;;;;;6196359;28;20926;-77
2021/08/28 02:19:29;;;;;;;4.55;2.30;;;17.50;77.40;;;;;;6196690;28;20977;-76
2021/08/28 02:22:35;;;;;;;7.50;2.08;;;17.00;77.30;;;;;;6197020;28;20523;-76
2021/08/28 02:25:43;;;;;;;4.90;2.25;;;17.10;77.60;;;;;;6196450;28;20569;-76
2021/08/28 02:28:49;;;;;;;4.90;2.22;;;17.10;77.50;;;;;;6196391;28;20468;-76
2021/08/28 02:31:52;;;;;;;5.68;2.08;;;17.00;77.30;;;;;;6196119;28;20539;-76
2021/08/28 02:34:56;;;;;;;4.93;1.92;;;17.10;77.80;;;;;;6196276;28;20606;-76
2021/08/28 02:38:00;;;;;;;2.92;2.15;;;17.00;78.00;;;;;;6196604;28;21032;-76
2021/08/28 02:41:05;;;;;;;4.65;2.40;;;17.00;78.00;;;;;;6200876;28;20553;-76
2021/08/28 02:44:08;;;;;;;4.50;2.50;;;17.00;77.70;;;;;;6200448;28;20503;-76
2021/08/28 02:47:13;;;;;;;5.30;2.17;;;17.00;78.30;;;;;;6195289;28;21036;-76
2021/08/28 02:50:16;;;;;;;3.88;2.80;;;17.00;77.50;;;;;;6196405;28;20526;-77
2021/08/28 02:53:20;;;;;;;4.53;2.13;;;17.00;77.60;;;;;;6195719;28;20464;-76
2021/08/28 02:56:24;;;;;;;5.63;3.13;;;16.90;77.90;;;;;;6195671;28;20839;-76
2021/08/28 02:59:27;;;;;;;6.00;2.60;;;17.00;77.70;;;;;;6195793;28;20463;-76
2021/08/28 03:02:31;;;;;;;4.00;2.33;;;17.00;78.00;;;;;;6196960;28;20540;-76
2021/08/28 03:05:33;;;;;;;4.23;2.90;;;17.00;77.90;;;;;;6195932;28;20565;-76
2021/08/28 03:08:36;;;;;;;3.55;2.60;;;17.00;77.60;;;;;;6196068;28;20414;-76
2021/08/28 03:11:38;;;;;;;7.90;2.88;;;17.00;78.00;;;;;;6195671;28;20488;-77
2021/08/28 03:14:41;;;;;;;5.80;2.65;;;16.90;77.60;;;;;;6195826;28;20535;-76
2021/08/28 03:17:46;;;;;;;4.68;2.55;;;17.10;78.10;;;;;;6196072;28;21094;-76
2021/08/28 03:20:51;;;;;;;4.65;2.50;;;16.90;78.10;;;;;;6195884;28;20546;-77
2021/08/28 03:23:55;;;;;;;5.25;2.45;;;16.90;78.50;;;;;;6195913;28;20515;-76
2021/08/28 03:26:59;;;;;;;7.63;3.35;;;16.90;79.00;;;;;;6195566;28;20500;-77
2021/08/28 03:30:02;;;;;;;5.53;3.10;;;16.90;78.60;;;;;;6196132;28;20476;-76
2021/08/28 03:33:05;;;;;;;3.72;3.25;;;16.90;79.20;;;;;;6195449;28;20506;-76
2021/08/28 03:36:08;;;;;;;4.97;2.77;;;17.00;78.40;;;;;;6195542;28;20537;-77
2021/08/28 03:39:10;;;;;;;6.37;2.90;;;17.00;78.10;;;;;;6195440;28;20580;-77
2021/08/28 03:42:12;;;;;;;4.65;2.83;;;17.00;78.00;;;;;;6198085;28;20580;-76
2021/08/28 03:45:14;;;;;;;4.50;3.25;;;17.00;77.90;;;;;;6199718;28;20458;-76
2021/08/28 03:48:20;;;;;;;5.00;3.08;;;17.00;78.00;;;;;;6195483;28;20454;-76
2021/08/28 03:51:22;;;;;;;4.90;3.00;;;17.40;78.50;;;;;;6195305;28;20478;-76
2021/08/28 03:54:24;;;;;;;5.87;2.80;;;17.00;78.30;;;;;;6195642;28;20528;-77
2021/08/28 03:57:25;;;;;;;3.50;2.83;;;17.40;78.30;;;;;;6197907;28;20476;-77
2021/08/28 04:00:28;;;;;;;8.00;2.90;;;17.00;78.10;;;;;;6200063;28;20882;-76
2021/08/28 04:03:31;;;;;;;5.00;2.70;;;16.90;78.30;;;;;;6199863;28;20467;-77
2021/08/28 04:06:33;;;;;;;4.87;3.07;;;17.00;78.60;;;;;;6199729;28;20482;-75
2021/08/28 04:09:35;;;;;;;5.65;2.63;;;17.00;78.50;;;;;;6200555;28;20441;-77
2021/08/28 04:12:37;;;;;;;7.40;2.92;;;16.90;79.00;;;;;;6208434;28;20492;-75
2021/08/28 04:15:39;;;;;;;5.32;3.22;;;17.00;78.90;;;;;;6211843;28;20417;-76
2021/08/28 04:18:42;;;;;;;5.78;3.20;;;16.90;78.80;;;;;;6200776;28;20456;-77
2021/08/28 04:21:44;;;;;;;11.00;3.33;;;16.90;79.20;;;;;;6199628;28;20536;-77
2021/08/28 04:24:46;;;;;;;7.60;3.17;;;16.90;79.00;;;;;;6199272;28;20474;-77
2021/08/28 04:27:48;;;;;;;6.18;3.55;;;16.90;79.30;;;;;;6199566;28;20963;-77
2021/08/28 04:30:49;;;;;;;6.32;3.20;;;17.10;79.30;;;;;;6199288;28;20520;-76
2021/08/28 04:33:53;;;;;;;5.73;2.80;;;16.90;79.30;;;;;;6200105;28;20931;-76
2021/08/28 04:36:55;;;;;;;4.20;3.30;;;17.50;79.50;;;;;;6198758;28;20590;-76
2021/08/28 04:39:56;;;;;;;6.05;3.35;;;16.90;80.10;;;;;;6199322;28;20449;-77
2021/08/28 04:42:58;;;;;;;4.32;3.10;;;16.90;79.20;;;;;;6200622;28;20489;-77
2021/08/28 04:46:00;;;;;;;5.37;3.10;;;16.80;78.90;;;;;;6203725;28;20606;-77
2021/08/28 04:49:03;;;;;;;3.17;2.88;;;16.80;79.00;;;;;;6199361;28;20481;-77
2021/08/28 04:52:06;;;;;;;4.77;3.13;;;17.00;79.60;;;;;;6198944;28;20535;-77
2021/08/28 04:55:09;;;;;;;5.73;3.20;;;16.80;79.30;;;;;;6198311;28;20455;-77
2021/08/28 04:58:10;;;;;;;5.43;3.50;;;16.70;79.00;;;;;;6199133;28;20507;-77
2021/08/28 05:01:12;;;;;;;6.23;3.47;;;16.90;79.20;;;;;;6198703;28;20450;-77
2021/08/28 05:04:15;;;;;;;6.63;3.90;;;16.60;79.50;;;;;;6198082;28;20520;-77
2021/08/28 05:07:17;;;;;;;6.22;3.35;;;17.10;79.80;;;;;;6198089;28;20422;-77
2021/08/28 05:10:19;;;;;;;6.28;3.45;;;16.60;80.30;;;;;;6198096;28;20437;-77
2021/08/28 05:13:21;;;;;;;10.35;3.40;;;16.60;79.80;;;;;;6198019;28;20426;-76
2021/08/28 05:16:23;;;;;;;10.35;3.90;;;16.60;80.00;;;;;;6197762;28;20509;-77
2021/08/28 05:19:26;;;;;;;4.32;3.22;;;16.70;80.10;;;;;;6198125;28;20497;-77
2021/08/28 05:22:28;;;;;;;6.70;3.17;;;16.80;80.10;;;;;;6198207;28;20570;-77
2021/08/28 05:25:30;;;;;;;6.25;3.10;;;17.00;80.20;;;;;;6197392;28;20418;-76
2021/08/28 05:28:32;;;;;;;3.10;2.80;;;16.90;79.80;;;;;;6198056;28;20446;-77
2021/08/28 05:31:34;;;;;;;4.13;2.85;;;16.90;79.60;;;;;;6197508;28;21201;-77
2021/08/28 05:34:37;;;;;;;4.28;3.10;;;17.20;79.30;;;;;;6197358;28;21389;-76
2021/08/28 05:37:39;;;;;;;3.70;2.80;;;17.00;79.10;;;;;;6198003;28;20480;-77
2021/08/28 05:40:42;;;;;;;5.30;3.63;;;17.00;79.20;;;;;;6197607;28;20855;-77
2021/08/28 05:43:43;;;;;;;3.40;2.70;;;17.00;79.20;;;;;;6199326;28;20420;-77
2021/08/28 05:46:45;;;;;;;7.60;3.00;;;17.00;79.20;;;;;;6201614;28;20521;-77
2021/08/28 05:49:48;;;;;;;8.02;3.13;;;17.10;79.00;;;;;;6197639;28;20537;-77
2021/08/28 05:52:50;;;;;;;3.90;2.53;;;17.20;78.80;;;;;;6197199;28;20446;-77
2021/08/28 05:55:52;;;;;;;5.00;3.13;;;17.30;78.30;;;;;;6261775;23;20542;-75
2021/08/28 05:58:54;;;;;;;5.47;2.92;;;17.40;78.20;;;;;;6245376;28;20490;-76
2021/08/28 06:01:55;;;;;;;7.60;2.40;;;17.50;77.80;;;;;;6245568;28;20435;-75
2021/08/28 06:04:59;;;;;;;5.72;2.90;;;17.60;77.50;;;;;;6217764;28;20905;-76
2021/08/28 06:08:01;;;;;;;7.63;2.90;;;17.70;76.80;;;;;;6211512;28;20493;-76
2021/08/28 06:11:03;;;;;;;4.20;2.80;;;17.70;76.80;;;;;;6198247;28;21003;-76
2021/08/28 06:14:04;;;;;;;6.63;3.60;;;17.60;77.20;;;;;;6207872;28;20490;-75
2021/08/28 06:17:06;;;;;;;4.88;2.95;;;17.60;76.80;;;;;;6219576;28;20499;-75
2021/08/28 06:20:11;;;;;;;6.47;3.20;;;17.70;76.80;;;;;;6219244;28;20424;-76
2021/08/28 06:23:13;;;;;;;4.00;3.20;;;17.60;76.70;;;;;;6203072;28;20505;-75
2021/08/28 06:26:15;;;;;;;5.18;3.65;;;17.70;76.90;;;;;;6195874;28;20532;-75
2021/08/28 06:29:17;;;;;;;5.45;3.15;;;17.70;77.00;;;;;;6195760;28;20509;-75
2021/08/28 06:32:19;;;;;;;4.50;3.38;;;17.70;77.40;;;;;;6195399;28;20791;-76
2021/08/28 06:35:22;;;;;;;5.53;3.00;;;17.80;77.30;;;;;;6195054;28;20529;-76
2021/08/28 06:38:24;;;;;;;6.32;4.18;;;17.80;76.80;;;;;;6197032;28;20445;-76
2021/08/28 06:41:26;;;;;;;4.95;3.78;;;17.90;76.30;;;;;;6219736;28;20452;-76
2021/08/28 06:44:28;;;;;;;4.40;3.08;;;18.00;75.80;;;;;;6219090;28;20510;-76
2021/08/28 06:47:29;;;;;;;3.65;3.25;;;18.10;74.90;;;;;;6218040;28;20555;-76
2021/08/28 06:50:32;;;;;;;4.83;3.37;;;18.30;74.10;;;;;;6198315;28;20489;-76
2021/08/28 06:53:34;;;;;;;4.72;2.80;;;18.50;73.30;;;;;;6195231;28;20418;-76
2021/08/28 06:56:36;;;;;;;8.85;4.70;;;18.70;72.70;;;;;;6178187;28;20424;-75
2021/08/28 06:59:39;;;;;;;5.47;4.40;;;18.80;71.90;;;;;;6179631;28;20458;-76
2021/08/28 07:02:43;;;;;;;7.00;4.40;;;18.80;70.40;;;;;;6193712;28;20528;-76
2021/08/28 07:05:46;;;;;;;5.60;4.55;;;18.90;70.10;;;;;;6185500;28;20446;-76
2021/08/28 07:08:48;;;;;;;5.78;4.38;;;19.00;70.00;;;;;;6218031;28;20494;-77
2021/08/28 07:11:51;;;;;;;4.00;3.63;;;19.10;70.30;;;;;;6209551;28;20557;-76
2021/08/28 07:14:53;;;;;;;5.77;4.27;;;19.20;69.40;;;;;;6177054;28;21953;-76
2021/08/28 07:17:55;;;;;;;5.47;4.85;;;19.20;69.50;;;;;;6195214;28;20460;-76
2021/08/28 07:20:58;;;;;;;6.72;4.90;;;19.30;68.50;;;;;;6194946;28;20506;-76
2021/08/28 07:24:01;;;;;;;6.75;4.80;;;19.40;68.60;;;;;;6194560;28;20430;-76
2021/08/28 07:27:03;;;;;;;7.15;4.38;;;19.60;68.60;;;;;;6194778;28;20411;-75
2021/08/28 07:30:06;;;;;;;8.23;5.43;;;19.60;67.70;;;;;;6195089;28;20815;-76
2021/08/28 07:33:08;;;;;;;7.93;4.82;;;19.50;67.30;;;;;;6198808;28;20501;-75
2021/08/28 07:36:11;;;;;;;6.55;5.82;;;19.30;67.50;;;;;;6216624;28;20458;-76
2021/08/28 07:39:13;;;;;;;6.25;5.28;;;19.20;67.60;;;;;;6199775;28;20461;-76
2021/08/28 07:42:15;;;;;;;8.63;5.03;;;19.00;68.10;;;;;;6200016;28;20492;-76
2021/08/28 07:45:17;;;;;;;5.85;5.35;;;18.90;68.40;;;;;;6199056;28;20493;-76
2021/08/28 07:48:19;;;;;;;6.70;5.03;;;18.90;68.80;;;;;;6207443;28;20776;-77
2021/08/28 07:51:22;;;;;;;6.72;5.05;;;18.90;69.00;;;;;;6199540;28;20458;-76
2021/08/28 07:54:24;;;;;;;6.87;4.67;;;19.00;69.10;;;;;;6199298;28;20924;-76
2021/08/28 07:57:25;;;;;;;17.42;8.30;;;19.20;68.50;;;;;;6222480;28;20499;-76
2021/08/28 08:00:27;;;;;;;14.43;6.25;;;19.40;71.00;;;;;;6223859;28;20495;-76
2021/08/28 08:03:29;;;;;;;5.53;4.82;;;19.60;67.50;;;;;;6220884;28;20500;-76
2021/08/28 08:06:32;;;;;;;6.13;5.53;;;19.70;66.30;;;;;;6190892;28;20505;-76
2021/08/28 08:09:34;;;;;;;7.68;5.70;;;19.80;67.30;;;;;;6199179;28;20414;-76
2021/08/28 08:12:36;;;;;;;6.47;5.87;;;20.00;66.50;;;;;;6197264;28;20561;-77
2021/08/28 08:15:38;;;;;;;5.55;5.05;;;20.00;66.10;;;;;;6183108;28;20545;-76
2021/08/28 08:18:40;;;;;;;11.65;5.38;;;20.20;65.50;;;;;;6198489;28;20482;-76
2021/08/28 08:21:43;;;;;;;9.35;5.15;;;20.30;65.00;;;;;;6198965;28;20536;-76
2021/08/28 08:24:45;;;;;;;4.75;4.35;;;20.40;65.10;;;;;;6198207;28;20418;-76
2021/08/28 08:27:47;;;;;;;6.22;4.57;;;20.30;64.00;;;;;;6205878;28;20551;-76
2021/08/28 08:30:49;;;;;;;5.20;4.70;;;20.40;63.70;;;;;;6223621;28;20921;-76
2021/08/28 08:33:51;;;;;;;5.53;4.80;;;20.30;63.10;;;;;;6223348;28;20540;-77
2021/08/28 08:36:54;;;;;;;6.22;4.68;;;20.20;63.70;;;;;;6214588;28;20523;-77
2021/08/28 08:39:56;;;;;;;8.70;5.20;;;19.90;65.00;;;;;;6222596;28;20845;-77
2021/08/28 08:43:01;;;;;;;5.30;4.65;;;19.80;65.70;;;;;;6221734;28;20401;-77
2021/08/28 08:46:04;;;;;;;6.75;5.05;;;19.80;66.40;;;;;;6222952;28;20440;-77
2021/08/28 08:49:07;;;;;;;7.45;4.75;;;19.70;66.40;;;;;;6186574;28;20983;-77
2021/08/28 08:52:11;;;;;;;4.90;4.40;;;19.60;66.90;;;;;;6186897;28;20513;-77
2021/08/28 08:55:13;;;;;;;6.90;3.95;;;19.60;66.40;;;;;;6192259;28;20467;-77
2021/08/28 08:58:16;;;;;;;5.90;4.70;;;19.60;66.60;;;;;;6181575;28;20460;-77
2021/08/28 09:01:18;;;;;;;6.30;4.80;;;19.60;65.90;;;;;;6197757;28;20568;-76
2021/08/28 09:04:19;;;;;;;4.97;4.13;;;19.60;67.10;;;;;;6197176;28;20433;-76
2021/08/28 09:07:23;;;;;;;5.45;4.10;;;19.50;67.40;;;;;;6189696;28;20453;-77
2021/08/28 09:10:25;;;;;;;7.53;6.22;;;19.40;68.50;;;;;;6198333;28;20430;-76
2021/08/28 09:13:27;;;;;;;8.60;5.55;;;19.10;70.70;;;;;;6197643;28;20442;-77
2021/08/28 09:16:30;;;;;;;6.22;5.63;;;18.70;73.50;;;;;;6197160;28;20503;-76
2021/08/28 09:19:37;;;;;;;8.48;6.15;;;18.40;74.70;;;;;;6197357;28;20561;-76
2021/08/28 09:22:40;;;;;;;8.57;6.27;;;18.30;75.70;;;;;;6197176;28;20438;-76
2021/08/28 09:25:44;;;;;;;7.68;6.78;;;18.10;76.60;;;;;;6196683;28;20516;-76
2021/08/28 09:28:54;;;;;;;7.32;6.63;;;17.90;77.40;;;;;;6215315;28;20504;-76
2021/08/28 09:31:56;;;;;;;9.30;6.68;;;17.80;77.80;;;;;;6221406;28;20436;-76
2021/08/28 09:35:08;;;;;;;6.80;6.10;;;17.80;78.60;;;;;;6225021;28;20426;-77
2021/08/28 09:38:13;;;;;;;7.63;6.57;;;17.70;78.60;;;;;;6231804;28;20443;-75
2021/08/28 09:41:31;;;;;;;7.38;6.68;;;17.90;79.50;;;;;;6221140;28;20913;-76
2021/08/28 09:44:37;;;;;;;7.43;6.43;;;17.90;79.50;;;;;;6220471;28;20929;-76
2021/08/28 09:47:42;;;;;;;7.40;6.43;;;17.90;78.60;;;;;;6218439;28;20492;-75
2021/08/28 09:50:46;;;;;;;7.60;5.70;;;17.90;79.30;;;;;;6211806;28;20436;-76
2021/08/28 09:54:00;;;;;;;5.25;4.85;;;18.00;77.70;;;;;;6220706;28;20459;-76
2021/08/28 09:57:02;;;;;;;7.13;6.43;;;18.10;77.80;;;;;;6220795;28;20421;-76
2021/08/28 10:00:08;;;;;;;7.88;6.55;;;18.20;78.10;;;;;;6220547;28;20506;-76
2021/08/28 10:03:10;;;;;;;9.75;6.82;;;18.30;77.60;;;;;;6220915;28;20538;-75
2021/08/28 10:06:13;;;;;;;6.82;5.93;;;18.30;78.40;;;;;;6211619;28;20420;-76
2021/08/28 10:09:18;;;;;;;7.37;6.30;;;18.50;78.00;;;;;;6220453;28;20456;-76
2021/08/28 10:12:21;;;;;;;5.75;4.70;;;18.50;77.90;;;;;;6220345;28;20413;-76
2021/08/28 10:15:23;;;;;;;5.32;4.72;;;18.40;76.50;;;;;;6220275;28;20482;-76
2021/08/28 10:18:26;;;;;;;3.70;2.70;;;18.40;76.60;;;;;;6220835;28;20502;-77
2021/08/28 10:21:28;;;;;;;4.90;3.03;;;18.50;74.20;;;;;;6220451;28;20507;-76
2021/08/28 10:24:31;;;;;;;5.13;3.40;;;18.40;75.10;;;;;;6219905;28;20475;-76
2021/08/28 10:27:33;;;;;;;2.83;2.55;;;18.40;75.40;;;;;;6220249;28;20419;-76
2021/08/28 10:30:35;;;;;;;3.95;2.75;;;18.40;74.40;;;;;;6220248;28;20433;-76
2021/08/28 10:33:37;;;;;;;23.85;4.28;;;18.50;75.20;;;;;;6219965;28;20558;-76
2021/08/28 10:36:40;;;;;;;3.78;3.35;;;18.60;75.10;;;;;;6211601;28;20456;-76
2021/08/28 10:39:46;;;;;;;4.18;3.63;;;18.60;74.70;;;;;;6219760;28;20417;-76
2021/08/28 10:42:51;;;;;;;5.63;5.03;;;18.80;75.10;;;;;;6219906;28;20518;-76
2021/08/28 10:45:53;;;;;;;4.40;4.00;;;18.90;73.40;;;;;;6219687;28;20513;-76
2021/08/28 10:48:57;;;;;;;7.70;5.32;;;18.90;74.60;;;;;;6216749;28;20500;-76
2021/08/28 10:51:58;;;;;;;6.38;5.78;;;19.00;73.90;;;;;;6200035;28;20796;-76
2021/08/28 10:55:05;;;;;;;6.25;4.95;;;19.00;74.80;;;;;;6194955;28;20450;-76
2021/08/28 10:58:15;;;;;;;6.33;5.70;;;19.10;74.30;;;;;;6195989;28;20531;-76
2021/08/28 11:01:19;;;;;;;5.15;3.83;;;19.10;75.10;;;;;;6194887;28;20549;-76
2021/08/28 11:04:32;;;;;;;4.70;4.30;;;19.10;73.10;;;;;;6203519;28;20432;-75
2021/08/28 11:07:42;;;;;;;5.90;4.10;;;19.00;72.90;;;;;;6211646;28;20424;-76
2021/08/28 11:11:18;;;;;;;6.75;3.53;;;19.10;73.20;;;;;;6219370;28;21067;-76
2021/08/28 11:14:40;;;;;;;4.53;3.90;;;19.20;72.70;;;;;;6219445;28;20523;-75
2021/08/28 11:17:47;;;;;;;4.70;4.20;;;19.20;73.20;;;;;;6219686;28;20787;-77
2021/08/28 11:20:51;;;;;;;5.30;3.92;;;19.30;74.10;;;;;;6219302;28;20488;-75
2021/08/28 11:23:53;;;;;;;7.03;4.20;;;19.50;73.90;;;;;;6219260;28;20427;-76
2021/08/28 11:26:57;;;;;;;4.03;3.47;;;19.40;72.40;;;;;;6219031;28;20420;-75
2021/08/28 11:29:59;;;;;;;4.30;4.00;;;19.30;72.10;;;;;;6219686;28;20437;-75
2021/08/28 11:33:02;;;;;;;4.22;3.83;;;19.50;72.50;;;;;;6219276;28;20436;-75
2021/08/28 11:36:06;;;;;;;4.00;3.63;;;19.60;72.40;;;;;;6208985;28;20418;-76
2021/08/28 11:39:24;;;;;;;3.90;3.60;;;19.60;72.00;;;;;;6219503;28;20424;-76
2021/08/28 11:42:29;;;;;;;4.45;3.60;;;19.90;70.90;;;;;;6203910;28;20467;-77
2021/08/28 11:45:34;;;;;;;3.90;3.60;;;20.10;69.90;;;;;;6194258;28;20499;-76
2021/08/28 11:48:37;;;;;;;3.90;3.50;;;20.30;70.40;;;;;;6201330;28;20430;-75
2021/08/28 11:51:41;;;;;;;3.42;3.20;;;20.40;69.70;;;;;;6203329;28;20524;-76
2021/08/28 11:54:45;;;;;;;3.92;3.58;;;20.50;69.50;;;;;;6219227;28;20519;-76
2021/08/28 11:58:00;;;;;;;3.30;3.00;;;20.60;68.50;;;;;;6215831;28;20434;-75
2021/08/28 12:01:02;;;;;;;4.22;3.30;;;20.50;67.70;;;;;;6194734;28;20419;-76
2021/08/28 12:04:06;;;;;;;3.50;2.73;;;20.50;67.60;;;;;;6201039;28;20555;-75
2021/08/28 12:07:08;;;;;;;3.50;3.20;;;20.40;68.30;;;;;;6210491;28;20944;-76
2021/08/28 12:10:11;;;;;;;4.03;2.90;;;20.40;68.30;;;;;;6219402;28;20480;-76
2021/08/28 12:13:14;;;;;;;3.63;2.78;;;20.30;68.10;;;;;;6218771;28;20455;-76
2021/08/28 12:16:27;;;;;;;3.63;2.30;;;20.40;68.20;;;;;;6219402;28;20475;-76
2021/08/28 12:19:30;;;;;;;2.67;2.47;;;20.30;66.50;;;;;;6222547;28;20517;-76
2021/08/28 12:22:32;;;;;;;4.22;2.78;;;20.40;66.40;;;;;;6224295;28;20440;-76
2021/08/28 12:25:34;;;;;;;5.05;2.55;;;20.40;66.30;;;;;;6222538;28;20991;-76
2021/08/28 12:28:37;;;;;;;4.00;3.10;;;20.30;66.40;;;;;;6223849;28;20506;-76
2021/08/28 12:31:39;;;;;;;3.38;3.00;;;20.30;66.50;;;;;;6222921;28;20455;-76
2021/08/28 12:34:43;;;;;;;3.78;3.45;;;20.30;66.50;;;;;;6222370;28;20780;-76
2021/08/28 12:37:45;;;;;;;3.50;2.70;;;20.40;65.50;;;;;;6220436;28;20440;-76
2021/08/28 12:40:47;;;;;;;2.45;2.25;;;20.50;65.00;;;;;;6222868;28;20917;-76
2021/08/28 12:43:50;;;;;;;2.23;2.00;;;20.60;64.30;;;;;;6222491;28;20486;-77
2021/08/28 12:46:53;;;;;;;2.40;2.20;;;20.60;63.30;;;;;;6221977;28;20494;-76
2021/08/28 12:49:55;;;;;;;4.53;2.28;;;20.70;61.90;;;;;;6223098;28;20498;-76
2021/08/28 12:53:05;;;;;;;3.97;2.80;;;20.90;62.70;;;;;;6207785;28;20437;-76
2021/08/28 12:56:07;;;;;;;3.45;3.15;;;21.20;61.80;;;;;;6197554;28;20538;-76
2021/08/28 12:59:17;;;;;;;2.83;2.00;;;21.50;62.20;;;;;;6197591;28;20427;-76
2021/08/28 13:02:21;;;;;;;3.10;1.90;;;21.60;59.00;;;;;;6198361;28;20935;-76
2021/08/28 13:05:24;;;;;;;3.00;2.27;;;21.60;58.80;;;;;;6206935;28;20531;-76
2021/08/28 13:08:34;;;;;;;2.22;2.03;;;21.70;58.40;;;;;;6221611;28;20575;-76
2021/08/28 13:11:35;;;;;;;4.97;4.53;;;21.70;58.10;;;;;;6221497;28;20505;-76
2021/08/28 13:14:52;;;;;;;3.25;3.05;;;21.70;58.30;;;;;;6221271;28;20512;-76
2021/08/28 13:17:59;;;;;;;3.85;3.22;;;21.60;58.10;;;;;;6221956;28;20913;-76
2021/08/28 13:21:00;;;;;;;2.92;2.20;;;21.40;59.30;;;;;;6221519;28;20421;-76
2021/08/28 13:24:09;;;;;;;3.33;2.92;;;21.30;58.80;;;;;;6221243;28;20925;-76
2021/08/28 13:27:11;;;;;;;2.28;1.95;;;21.30;59.50;;;;;;6221196;28;21141;-76
2021/08/28 13:30:19;;;;;;;1.90;1.80;;;21.30;59.30;;;;;;6221436;28;20523;-76
2021/08/28 13:33:30;;;;;;;2.15;1.95;;;21.30;58.90;;;;;;6220932;28;20417;-76
2021/08/28 13:36:32;;;;;;;1.92;1.83;;;21.50;58.10;;;;;;6204544;28;21038;-76
2021/08/28 13:39:35;;;;;;;2.05;1.85;;;21.50;57.10;;;;;;6197323;28;20418;-76
2021/08/28 13:42:36;;;;;;;3.58;2.20;;;21.60;57.10;;;;;;6196556;28;20802;-77
2021/08/28 13:45:39;;;;;;;2.17;1.97;;;21.80;57.50;;;;;;6197309;28;20491;-76
2021/08/28 13:48:42;;;;;;;2.67;2.30;;;22.00;56.40;;;;;;6196628;28;20488;-76
2021/08/28 13:51:44;;;;;;;2.83;2.13;;;22.00;56.80;;;;;;6199186;28;20476;-76
2021/08/28 13:54:45;;;;;;;1.48;1.27;;;22.00;56.90;;;;;;6211219;28;20436;-76
2021/08/28 13:57:48;;;;;;;2.35;1.60;;;22.00;57.40;;;;;;6221614;28;20479;-76
2021/08/28 14:00:51;;;;;;;3.20;2.40;;;22.10;55.90;;;;;;6220873;28;20498;-76
2021/08/28 14:03:53;;;;;;;1.77;1.45;;;22.00;55.80;;;;;;6220611;28;20409;-76
2021/08/28 14:06:55;;;;;;;1.43;1.33;;;22.00;55.60;;;;;;6212274;28;20806;-76
2021/08/28 14:09:57;;;;;;;1.42;1.33;;;22.10;55.70;;;;;;6220769;28;20439;-76
2021/08/28 14:12:58;;;;;;;1.58;1.35;;;22.20;54.50;;;;;;6220699;28;20417;-76
2021/08/28 14:16:02;;;;;;;1.55;1.33;;;22.20;55.80;;;;;;6220011;28;20503;-76
2021/08/28 14:19:03;;;;;;;3.10;1.55;;;22.30;55.20;;;;;;6220461;28;20766;-76
2021/08/28 14:22:07;;;;;;;1.70;1.50;;;22.40;55.40;;;;;;6220562;28;20570;-77
2021/08/28 14:25:09;;;;;;;2.40;1.60;;;22.40;54.80;;;;;;6220331;28;20424;-76
2021/08/28 14:28:11;;;;;;;1.80;1.17;;;22.30;52.30;;;;;;6220059;28;20786;-77
2021/08/28 14:31:14;;;;;;;1.75;1.65;;;22.20;53.90;;;;;;6220535;28;20428;-76
2021/08/28 14:34:17;;;;;;;5.25;3.47;;;22.10;54.00;;;;;;6220013;28;20586;-76
2021/08/28 14:37:19;;;;;;;1.52;1.25;;;21.90;54.40;;;;;;6211597;28;20628;-76
2021/08/28 14:40:21;;;;;;;1.27;1.13;;;21.80;54.60;;;;;;6219432;28;20571;-76
2021/08/28 14:43:23;;;;;;;1.60;1.50;;;21.80;55.90;;;;;;6219402;28;20536;-77
2021/08/28 14:46:26;;;;;;;1.50;1.40;;;22.00;54.90;;;;;;6220318;28;20468;-76
2021/08/28 14:49:28;;;;;;;2.50;1.77;;;22.20;56.60;;;;;;6220036;28;21097;-76
2021/08/28 14:52:30;;;;;;;2.08;1.52;;;22.60;54.10;;;;;;6219415;28;20471;-77
2021/08/28 14:55:32;;;;;;;2.22;1.77;;;22.80;53.20;;;;;;6212015;28;21167;-78
2021/08/28 14:58:33;;;;;;;2.67;1.90;;;22.90;53.40;;;;;;6221088;28;20443;-77
2021/08/28 15:01:37;;;;;;;1.60;1.30;;;22.90;51.90;;;;;;6220981;28;20921;-77
2021/08/28 15:04:39;;;;;;;2.10;1.67;;;23.20;52.60;;;;;;6218955;28;20509;-77
2021/08/28 15:07:41;;;;;;;1.45;1.35;;;23.00;52.50;;;;;;6215584;28;20555;-77
2021/08/28 15:10:43;;;;;;;3.05;1.55;;;23.00;52.40;;;;;;6221941;28;20447;-77
2021/08/28 15:13:44;;;;;;;1.90;1.70;;;23.00;51.20;;;;;;6221823;28;20440;-77
2021/08/28 15:16:48;;;;;;;1.48;1.38;;;23.00;50.70;;;;;;6221119;28;20902;-77
2021/08/28 15:19:49;;;;;;;1.37;1.10;;;22.80;50.90;;;;;;6224538;28;20488;-78
2021/08/28 15:22:51;;;;;;;1.50;1.40;;;22.70;50.60;;;;;;6221001;28;20476;-79
2021/08/28 15:25:53;;;;;;;1.63;1.27;;;22.60;51.00;;;;;;6221298;28;20914;-78
2021/08/28 15:28:55;;;;;;;1.67;1.30;;;22.40;50.20;;;;;;6221128;28;20500;-77
2021/08/28 15:31:59;;;;;;;2.40;1.50;;;22.30;50.80;;;;;;6221721;28;20457;-78
2021/08/28 15:35:01;;;;;;;1.73;1.20;;;22.10;52.80;;;;;;6215754;28;21011;-78
2021/08/28 15:38:03;;;;;;;2.20;1.27;;;21.90;53.00;;;;;;6218401;28;20460;-77
2021/08/28 15:41:05;;;;;;;1.90;1.25;;;21.70;53.90;;;;;;6220878;28;20466;-78
2021/08/28 15:44:08;;;;;;;2.30;1.30;;;21.70;55.80;;;;;;6220822;28;20440;-78
2021/08/28 15:47:11;;;;;;;1.30;1.20;;;21.70;55.60;;;;;;6220752;28;21238;-78
2021/08/28 15:50:16;;;;;;;1.50;1.00;;;21.70;55.40;;;;;;6220712;28;20938;-77
2021/08/28 15:53:19;;;;;;;2.17;1.25;;;21.60;55.20;;;;;;6222863;28;20558;-78